sensor_id;sensor_type;location;lat;lon;timestamp;P1;durP1;ratioP1;P2;durP2;ratioP2
12212;SDS011;6169;44.158;22.788;2023-04-01T00:01:46;17.95;;;13.68;;
12212;SDS011;6169;44.158;22.788;2023-04-01T00:06:49;27.85;;;17.90;;
12212;SDS011;6169;44.158;22.788;2023-04-01T00:11:53;24.73;;;16.55;;
12212;SDS011;6169;44.158;22.788;2023-04-01T00:16:55;19.67;;;12.93;;
12212;SDS011;6169;44.158;22.788;2023-04-01T00:21:57;20.88;;;13.52;;
12212;SDS011;6169;44.158;22.788;2023-04-01T00:27:01;19.13;;;13.23;;
12212;SDS011;6169;44.158;22.788;2023-04-01T00:32:03;19.52;;;10.95;;
12212;SDS011;6169;44.158;22.788;2023-04-01T00:37:06;16.52;;;11.13;;
12212;SDS011;6169;44.158;22.788;2023-04-01T00:42:09;17.80;;;11.93;;
12212;SDS011;6169;44.158;22.788;2023-04-01T00:47:12;16.50;;;11.75;;
12212;SDS011;6169;44.158;22.788;2023-04-01T00:52:15;17.48;;;11.25;;
12212;SDS011;6169;44.158;22.788;2023-04-01T00:57:23;19.88;;;11.27;;
12212;SDS011;6169;44.158;22.788;2023-04-01T01:02:29;17.55;;;12.65;;
12212;SDS011;6169;44.158;22.788;2023-04-01T01:07:35;17.08;;;11.00;;
12212;SDS011;6169;44.158;22.788;2023-04-01T01:12:49;18.42;;;12.13;;
12212;SDS011;6169;44.158;22.788;2023-04-01T01:18:01;20.23;;;13.07;;
12212;SDS011;6169;44.158;22.788;2023-04-01T01:23:18;19.60;;;13.27;;
12212;SDS011;6169;44.158;22.788;2023-04-01T01:28:42;18.73;;;13.23;;
12212;SDS011;6169;44.158;22.788;2023-04-01T01:34:06;14.98;;;12.60;;
12212;SDS011;6169;44.158;22.788;2023-04-01T01:39:18;16.27;;;10.60;;
12212;SDS011;6169;44.158;22.788;2023-04-01T01:44:26;15.60;;;11.60;;
12212;SDS011;6169;44.158;22.788;2023-04-01T01:49:32;15.68;;;10.95;;
12212;SDS011;6169;44.158;22.788;2023-04-01T01:54:47;24.83;;;16.10;;
12212;SDS011;6169;44.158;22.788;2023-04-01T01:59:49;23.70;;;14.23;;
12212;SDS011;6169;44.158;22.788;2023-04-01T02:04:55;21.85;;;14.18;;
12212;SDS011;6169;44.158;22.788;2023-04-01T02:09:59;17.48;;;12.75;;
12212;SDS011;6169;44.158;22.788;2023-04-01T02:15:04;18.85;;;11.57;;
12212;SDS011;6169;44.158;22.788;2023-04-01T02:20:10;27.20;;;12.90;;
12212;SDS011;6169;44.158;22.788;2023-04-01T02:25:19;12.93;;;9.85;;
12212;SDS011;6169;44.158;22.788;2023-04-01T02:30:25;19.73;;;11.93;;
12212;SDS011;6169;44.158;22.788;2023-04-01T02:35:30;23.00;;;15.15;;
12212;SDS011;6169;44.158;22.788;2023-04-01T02:40:47;19.58;;;12.48;;
12212;SDS011;6169;44.158;22.788;2023-04-01T02:45:50;19.95;;;12.82;;
12212;SDS011;6169;44.158;22.788;2023-04-01T02:50:53;16.95;;;12.20;;
12212;SDS011;6169;44.158;22.788;2023-04-01T02:55:56;20.90;;;10.57;;
12212;SDS011;6169;44.158;22.788;2023-04-01T03:00:58;16.30;;;11.73;;
12212;SDS011;6169;44.158;22.788;2023-04-01T03:06:04;18.33;;;12.18;;
12212;SDS011;6169;44.158;22.788;2023-04-01T03:11:08;12.88;;;10.18;;
12212;SDS011;6169;44.158;22.788;2023-04-01T03:16:10;11.95;;;8.60;;
12212;SDS011;6169;44.158;22.788;2023-04-01T03:21:16;7.65;;;4.85;;
12212;SDS011;6169;44.158;22.788;2023-04-01T03:26:21;6.80;;;4.63;;
12212;SDS011;6169;44.158;22.788;2023-04-01T03:31:23;7.82;;;5.03;;
12212;SDS011;6169;44.158;22.788;2023-04-01T03:36:26;6.32;;;4.38;;
12212;SDS011;6169;44.158;22.788;2023-04-01T03:41:29;4.32;;;3.50;;
12212;SDS011;6169;44.158;22.788;2023-04-01T03:46:32;4.38;;;2.20;;
12212;SDS011;6169;44.158;22.788;2023-04-01T03:51:34;7.32;;;3.22;;
12212;SDS011;6169;44.158;22.788;2023-04-01T03:56:37;5.55;;;2.53;;
12212;SDS011;6169;44.158;22.788;2023-04-01T04:01:40;7.18;;;3.70;;
12212;SDS011;6169;44.158;22.788;2023-04-01T04:06:42;5.70;;;3.47;;
12212;SDS011;6169;44.158;22.788;2023-04-01T04:11:45;16.05;;;11.45;;
12212;SDS011;6169;44.158;22.788;2023-04-01T04:16:47;15.45;;;12.00;;
12212;SDS011;6169;44.158;22.788;2023-04-01T04:21:50;19.63;;;10.52;;
12212;SDS011;6169;44.158;22.788;2023-04-01T04:26:53;16.23;;;10.15;;
12212;SDS011;6169;44.158;22.788;2023-04-01T04:31:55;13.20;;;10.05;;
12212;SDS011;6169;44.158;22.788;2023-04-01T04:36:58;18.58;;;14.30;;
12212;SDS011;6169;44.158;22.788;2023-04-01T04:42:01;14.27;;;11.05;;
12212;SDS011;6169;44.158;22.788;2023-04-01T04:47:03;16.65;;;11.32;;
12212;SDS011;6169;44.158;22.788;2023-04-01T04:52:05;13.13;;;9.63;;
12212;SDS011;6169;44.158;22.788;2023-04-01T04:57:09;28.02;;;19.42;;
12212;SDS011;6169;44.158;22.788;2023-04-01T05:02:11;19.23;;;13.43;;
12212;SDS011;6169;44.158;22.788;2023-04-01T05:07:13;18.40;;;13.85;;
12212;SDS011;6169;44.158;22.788;2023-04-01T05:12:17;28.90;;;13.05;;
12212;SDS011;6169;44.158;22.788;2023-04-01T05:17:19;17.88;;;12.07;;
12212;SDS011;6169;44.158;22.788;2023-04-01T05:22:21;22.30;;;12.18;;
12212;SDS011;6169;44.158;22.788;2023-04-01T05:27:25;16.85;;;13.18;;
12212;SDS011;6169;44.158;22.788;2023-04-01T05:32:27;22.15;;;19.00;;
12212;SDS011;6169;44.158;22.788;2023-04-01T05:37:29;22.88;;;11.40;;
12212;SDS011;6169;44.158;22.788;2023-04-01T05:42:33;17.05;;;13.25;;
12212;SDS011;6169;44.158;22.788;2023-04-01T05:47:35;13.43;;;11.68;;
12212;SDS011;6169;44.158;22.788;2023-04-01T05:52:38;13.77;;;11.45;;
12212;SDS011;6169;44.158;22.788;2023-04-01T05:57:41;16.35;;;10.30;;
12212;SDS011;6169;44.158;22.788;2023-04-01T06:02:43;14.32;;;10.82;;
12212;SDS011;6169;44.158;22.788;2023-04-01T06:07:46;15.25;;;10.25;;
12212;SDS011;6169;44.158;22.788;2023-04-01T06:12:52;21.77;;;15.43;;
12212;SDS011;6169;44.158;22.788;2023-04-01T06:18:23;33.08;;;22.13;;
12212;SDS011;6169;44.158;22.788;2023-04-01T06:23:47;18.30;;;12.52;;
12212;SDS011;6169;44.158;22.788;2023-04-01T06:29:05;20.75;;;13.23;;
12212;SDS011;6169;44.158;22.788;2023-04-01T06:34:23;22.95;;;16.88;;
12212;SDS011;6169;44.158;22.788;2023-04-01T06:45:09;22.67;;;17.27;;
12212;SDS011;6169;44.158;22.788;2023-04-01T06:50:22;25.38;;;16.92;;
12212;SDS011;6169;44.158;22.788;2023-04-01T06:55:32;27.40;;;17.83;;
12212;SDS011;6169;44.158;22.788;2023-04-01T07:00:42;30.08;;;20.60;;
12212;SDS011;6169;44.158;22.788;2023-04-01T07:05:47;22.75;;;16.25;;
12212;SDS011;6169;44.158;22.788;2023-04-01T07:10:51;21.60;;;15.85;;
12212;SDS011;6169;44.158;22.788;2023-04-01T07:16:05;24.25;;;15.05;;
12212;SDS011;6169;44.158;22.788;2023-04-01T07:21:22;21.75;;;16.23;;
12212;SDS011;6169;44.158;22.788;2023-04-01T07:26:28;20.55;;;15.82;;
12212;SDS011;6169;44.158;22.788;2023-04-01T07:31:36;29.35;;;20.20;;
12212;SDS011;6169;44.158;22.788;2023-04-01T07:36:53;25.10;;;18.63;;
12212;SDS011;6169;44.158;22.788;2023-04-01T07:47:20;21.63;;;15.48;;
12212;SDS011;6169;44.158;22.788;2023-04-01T07:52:35;19.85;;;13.50;;
12212;SDS011;6169;44.158;22.788;2023-04-01T08:02:56;25.35;;;16.88;;
12212;SDS011;6169;44.158;22.788;2023-04-01T08:08:13;19.75;;;12.05;;
12212;SDS011;6169;44.158;22.788;2023-04-01T08:13:27;11.27;;;8.50;;
12212;SDS011;6169;44.158;22.788;2023-04-01T08:18:41;11.15;;;8.75;;
12212;SDS011;6169;44.158;22.788;2023-04-01T08:23:51;18.65;;;11.20;;
12212;SDS011;6169;44.158;22.788;2023-04-01T08:28:58;14.40;;;8.20;;
12212;SDS011;6169;44.158;22.788;2023-04-01T08:34:08;14.82;;;9.60;;
12212;SDS011;6169;44.158;22.788;2023-04-01T08:39:17;15.82;;;8.18;;
12212;SDS011;6169;44.158;22.788;2023-04-01T08:44:31;19.00;;;12.38;;
12212;SDS011;6169;44.158;22.788;2023-04-01T08:50:00;16.30;;;12.38;;
12212;SDS011;6169;44.158;22.788;2023-04-01T08:55:28;42.00;;;24.90;;
12212;SDS011;6169;44.158;22.788;2023-04-01T09:00:39;17.83;;;11.77;;
12212;SDS011;6169;44.158;22.788;2023-04-01T09:11:33;12.25;;;10.63;;
12212;SDS011;6169;44.158;22.788;2023-04-01T09:22:50;15.38;;;8.63;;
12212;SDS011;6169;44.158;22.788;2023-04-01T09:28:13;13.27;;;8.65;;
12212;SDS011;6169;44.158;22.788;2023-04-01T09:38:55;16.23;;;9.67;;
12212;SDS011;6169;44.158;22.788;2023-04-01T09:44:02;9.45;;;6.45;;
12212;SDS011;6169;44.158;22.788;2023-04-01T09:49:21;10.93;;;5.78;;
12212;SDS011;6169;44.158;22.788;2023-04-01T09:54:45;10.02;;;6.43;;
12212;SDS011;6169;44.158;22.788;2023-04-01T10:00:06;10.40;;;5.88;;
12212;SDS011;6169;44.158;22.788;2023-04-01T10:11:28;20.47;;;8.03;;
12212;SDS011;6169;44.158;22.788;2023-04-01T10:28:11;9.13;;;5.07;;
12212;SDS011;6169;44.158;22.788;2023-04-01T10:44:47;10.50;;;5.70;;
12212;SDS011;6169;44.158;22.788;2023-04-01T10:50:30;20.65;;;6.57;;
12212;SDS011;6169;44.158;22.788;2023-04-01T10:55:53;10.43;;;6.78;;
12212;SDS011;6169;44.158;22.788;2023-04-01T11:07:13;8.43;;;5.95;;
12212;SDS011;6169;44.158;22.788;2023-04-01T11:12:41;10.90;;;7.00;;
12212;SDS011;6169;44.158;22.788;2023-04-01T11:23:54;16.85;;;9.98;;
12212;SDS011;6169;44.158;22.788;2023-04-01T11:35:05;12.68;;;6.60;;
12212;SDS011;6169;44.158;22.788;2023-04-01T11:40:33;18.75;;;8.52;;
12212;SDS011;6169;44.158;22.788;2023-04-01T11:45:43;16.52;;;10.75;;
12212;SDS011;6169;44.158;22.788;2023-04-01T11:50:55;21.13;;;12.60;;
12212;SDS011;6169;44.158;22.788;2023-04-01T11:56:09;13.00;;;8.68;;
12212;SDS011;6169;44.158;22.788;2023-04-01T12:01:25;15.32;;;9.25;;
12212;SDS011;6169;44.158;22.788;2023-04-01T12:06:36;6.18;;;4.72;;
12212;SDS011;6169;44.158;22.788;2023-04-01T12:11:48;11.25;;;7.13;;
12212;SDS011;6169;44.158;22.788;2023-04-01T12:17:03;10.02;;;6.20;;
12212;SDS011;6169;44.158;22.788;2023-04-01T12:27:39;3.22;;;1.92;;
12212;SDS011;6169;44.158;22.788;2023-04-01T12:32:46;2.55;;;2.13;;
12212;SDS011;6169;44.158;22.788;2023-04-01T12:38:10;2.70;;;1.23;;
12212;SDS011;6169;44.158;22.788;2023-04-01T12:49:10;4.30;;;2.10;;
12212;SDS011;6169;44.158;22.788;2023-04-01T13:00:10;4.05;;;1.88;;
12212;SDS011;6169;44.158;22.788;2023-04-01T13:11:07;1.88;;;1.75;;
12212;SDS011;6169;44.158;22.788;2023-04-01T13:16:17;2.67;;;2.08;;
12212;SDS011;6169;44.158;22.788;2023-04-01T13:21:30;11.30;;;6.97;;
12212;SDS011;6169;44.158;22.788;2023-04-01T13:26:54;7.65;;;3.75;;
12212;SDS011;6169;44.158;22.788;2023-04-01T13:32:09;6.38;;;3.63;;
12212;SDS011;6169;44.158;22.788;2023-04-01T13:37:22;8.63;;;4.57;;
12212;SDS011;6169;44.158;22.788;2023-04-01T13:42:34;5.10;;;4.60;;
12212;SDS011;6169;44.158;22.788;2023-04-01T13:48:10;10.32;;;7.00;;
12212;SDS011;6169;44.158;22.788;2023-04-01T13:59:04;9.73;;;6.95;;
12212;SDS011;6169;44.158;22.788;2023-04-01T14:04:36;9.73;;;7.88;;
12212;SDS011;6169;44.158;22.788;2023-04-01T14:09:58;11.00;;;7.15;;
12212;SDS011;6169;44.158;22.788;2023-04-01T14:15:23;17.77;;;13.77;;
12212;SDS011;6169;44.158;22.788;2023-04-01T14:20:40;13.10;;;8.98;;
12212;SDS011;6169;44.158;22.788;2023-04-01T14:25:58;13.02;;;9.10;;
12212;SDS011;6169;44.158;22.788;2023-04-01T14:31:20;8.93;;;7.00;;
12212;SDS011;6169;44.158;22.788;2023-04-01T14:36:49;9.40;;;5.20;;
12212;SDS011;6169;44.158;22.788;2023-04-01T14:47:22;9.85;;;8.85;;
12212;SDS011;6169;44.158;22.788;2023-04-01T14:57:39;10.82;;;9.30;;
12212;SDS011;6169;44.158;22.788;2023-04-01T15:02:51;11.68;;;8.90;;
12212;SDS011;6169;44.158;22.788;2023-04-01T15:08:10;13.32;;;9.18;;
12212;SDS011;6169;44.158;22.788;2023-04-01T15:13:19;13.02;;;9.60;;
12212;SDS011;6169;44.158;22.788;2023-04-01T15:18:34;16.95;;;11.18;;
12212;SDS011;6169;44.158;22.788;2023-04-01T15:23:52;41.25;;;20.45;;
12212;SDS011;6169;44.158;22.788;2023-04-01T15:29:07;17.35;;;8.82;;
12212;SDS011;6169;44.158;22.788;2023-04-01T15:34:32;10.65;;;8.18;;
12212;SDS011;6169;44.158;22.788;2023-04-01T15:39:46;23.05;;;14.68;;
12212;SDS011;6169;44.158;22.788;2023-04-01T15:45:02;12.38;;;8.70;;
12212;SDS011;6169;44.158;22.788;2023-04-01T15:56:06;21.20;;;13.63;;
12212;SDS011;6169;44.158;22.788;2023-04-01T16:01:26;31.48;;;17.85;;
12212;SDS011;6169;44.158;22.788;2023-04-01T16:06:43;10.80;;;8.23;;
12212;SDS011;6169;44.158;22.788;2023-04-01T16:11:59;12.57;;;9.48;;
12212;SDS011;6169;44.158;22.788;2023-04-01T16:17:19;5.50;;;5.00;;
12212;SDS011;6169;44.158;22.788;2023-04-01T16:22:33;15.65;;;10.35;;
12212;SDS011;6169;44.158;22.788;2023-04-01T16:27:42;4.10;;;1.20;;
12212;SDS011;6169;44.158;22.788;2023-04-01T16:32:51;1.95;;;1.00;;
12212;SDS011;6169;44.158;22.788;2023-04-01T16:38:00;1.25;;;0.60;;
12212;SDS011;6169;44.158;22.788;2023-04-01T16:43:15;3.67;;;1.77;;
12212;SDS011;6169;44.158;22.788;2023-04-01T16:48:44;0.73;;;0.50;;
12212;SDS011;6169;44.158;22.788;2023-04-01T16:54:02;5.25;;;1.25;;
12212;SDS011;6169;44.158;22.788;2023-04-01T16:59:16;0.93;;;0.50;;
12212;SDS011;6169;44.158;22.788;2023-04-01T17:04:27;0.30;;;0.30;;
12212;SDS011;6169;44.158;22.788;2023-04-01T17:09:40;2.35;;;1.00;;
12212;SDS011;6169;44.158;22.788;2023-04-01T17:15:01;6.15;;;1.10;;
12212;SDS011;6169;44.158;22.788;2023-04-01T17:20:14;1.02;;;0.57;;
12212;SDS011;6169;44.158;22.788;2023-04-01T17:25:52;0.77;;;0.60;;
12212;SDS011;6169;44.158;22.788;2023-04-01T17:31:05;1.00;;;0.20;;
12212;SDS011;6169;44.158;22.788;2023-04-01T17:36:16;0.55;;;0.10;;
12212;SDS011;6169;44.158;22.788;2023-04-01T17:41:32;1.15;;;0.20;;
12212;SDS011;6169;44.158;22.788;2023-04-01T17:46:50;4.45;;;1.70;;
12212;SDS011;6169;44.158;22.788;2023-04-01T17:52:07;3.83;;;1.52;;
12212;SDS011;6169;44.158;22.788;2023-04-01T17:57:28;5.38;;;3.35;;
12212;SDS011;6169;44.158;22.788;2023-04-01T18:02:45;9.80;;;4.65;;
12212;SDS011;6169;44.158;22.788;2023-04-01T18:07:59;15.65;;;8.05;;
12212;SDS011;6169;44.158;22.788;2023-04-01T18:18:50;4.75;;;3.13;;
12212;SDS011;6169;44.158;22.788;2023-04-01T18:24:02;2.95;;;1.73;;
12212;SDS011;6169;44.158;22.788;2023-04-01T18:29:19;1.52;;;1.42;;
12212;SDS011;6169;44.158;22.788;2023-04-01T18:34:39;1.73;;;1.23;;
12212;SDS011;6169;44.158;22.788;2023-04-01T18:39:52;4.95;;;2.00;;
12212;SDS011;6169;44.158;22.788;2023-04-01T18:45:01;14.57;;;8.73;;
12212;SDS011;6169;44.158;22.788;2023-04-01T18:50:24;0.85;;;0.65;;
12212;SDS011;6169;44.158;22.788;2023-04-01T18:55:35;2.35;;;1.67;;
12212;SDS011;6169;44.158;22.788;2023-04-01T19:00:44;1.55;;;0.95;;
12212;SDS011;6169;44.158;22.788;2023-04-01T19:05:56;2.47;;;0.60;;
12212;SDS011;6169;44.158;22.788;2023-04-01T19:11:06;3.22;;;0.65;;
12212;SDS011;6169;44.158;22.788;2023-04-01T19:16:16;3.25;;;2.08;;
12212;SDS011;6169;44.158;22.788;2023-04-01T19:21:29;3.83;;;1.67;;
12212;SDS011;6169;44.158;22.788;2023-04-01T19:26:39;3.15;;;1.85;;
12212;SDS011;6169;44.158;22.788;2023-04-01T19:31:52;2.65;;;1.63;;
12212;SDS011;6169;44.158;22.788;2023-04-01T19:37:08;3.85;;;1.40;;
12212;SDS011;6169;44.158;22.788;2023-04-01T19:42:22;2.25;;;0.63;;
12212;SDS011;6169;44.158;22.788;2023-04-01T19:47:46;1.85;;;0.55;;
12212;SDS011;6169;44.158;22.788;2023-04-01T19:53:01;0.85;;;0.70;;
12212;SDS011;6169;44.158;22.788;2023-04-01T19:58:14;1.95;;;0.38;;
12212;SDS011;6169;44.158;22.788;2023-04-01T20:03:28;2.63;;;1.30;;
12212;SDS011;6169;44.158;22.788;2023-04-01T20:08:38;2.22;;;2.00;;
12212;SDS011;6169;44.158;22.788;2023-04-01T20:13:49;2.58;;;1.88;;
12212;SDS011;6169;44.158;22.788;2023-04-01T20:18:58;3.78;;;1.90;;
12212;SDS011;6169;44.158;22.788;2023-04-01T20:24:07;0.45;;;0.40;;
12212;SDS011;6169;44.158;22.788;2023-04-01T20:29:31;4.40;;;0.57;;
12212;SDS011;6169;44.158;22.788;2023-04-01T20:34:49;2.85;;;1.27;;
12212;SDS011;6169;44.158;22.788;2023-04-01T20:40:23;2.08;;;1.35;;
12212;SDS011;6169;44.158;22.788;2023-04-01T20:45:37;0.77;;;0.55;;
12212;SDS011;6169;44.158;22.788;2023-04-01T21:01:34;0.70;;;0.70;;
12212;SDS011;6169;44.158;22.788;2023-04-01T21:12:28;0.70;;;0.40;;
12212;SDS011;6169;44.158;22.788;2023-04-01T21:17:44;1.10;;;0.68;;
12212;SDS011;6169;44.158;22.788;2023-04-01T21:23:02;0.95;;;0.70;;
12212;SDS011;6169;44.158;22.788;2023-04-01T21:28:16;0.63;;;0.63;;
12212;SDS011;6169;44.158;22.788;2023-04-01T21:33:37;1.70;;;1.15;;
12212;SDS011;6169;44.158;22.788;2023-04-01T21:38:51;0.98;;;0.80;;
12212;SDS011;6169;44.158;22.788;2023-04-01T21:44:10;4.20;;;1.23;;
12212;SDS011;6169;44.158;22.788;2023-04-01T21:49:49;1.63;;;1.42;;
12212;SDS011;6169;44.158;22.788;2023-04-01T21:55:11;2.00;;;1.90;;
12212;SDS011;6169;44.158;22.788;2023-04-01T22:00:31;2.65;;;1.55;;
12212;SDS011;6169;44.158;22.788;2023-04-01T22:05:36;2.42;;;2.22;;
12212;SDS011;6169;44.158;22.788;2023-04-01T22:10:41;7.05;;;1.60;;
12212;SDS011;6169;44.158;22.788;2023-04-01T22:15:51;1.45;;;1.20;;
12212;SDS011;6169;44.158;22.788;2023-04-01T22:21:02;1.92;;;1.70;;
12212;SDS011;6169;44.158;22.788;2023-04-01T22:26:11;5.97;;;2.00;;
12212;SDS011;6169;44.158;22.788;2023-04-01T22:31:19;1.80;;;1.70;;
12212;SDS011;6169;44.158;22.788;2023-04-01T22:36:30;2.22;;;1.67;;
12212;SDS011;6169;44.158;22.788;2023-04-01T22:41:52;2.55;;;1.67;;
12212;SDS011;6169;44.158;22.788;2023-04-01T22:47:04;3.13;;;1.60;;
12212;SDS011;6169;44.158;22.788;2023-04-01T22:52:18;1.88;;;1.45;;
12212;SDS011;6169;44.158;22.788;2023-04-01T22:57:34;2.42;;;1.60;;
12212;SDS011;6169;44.158;22.788;2023-04-01T23:02:42;1.73;;;1.63;;
12212;SDS011;6169;44.158;22.788;2023-04-01T23:07:50;1.70;;;1.60;;
12212;SDS011;6169;44.158;22.788;2023-04-01T23:12:58;2.67;;;2.33;;
12212;SDS011;6169;44.158;22.788;2023-04-01T23:18:05;3.45;;;2.00;;
12212;SDS011;6169;44.158;22.788;2023-04-01T23:23:23;1.98;;;1.63;;
12212;SDS011;6169;44.158;22.788;2023-04-01T23:28:43;2.72;;;1.77;;
12212;SDS011;6169;44.158;22.788;2023-04-01T23:33:52;1.80;;;1.35;;
12212;SDS011;6169;44.158;22.788;2023-04-01T23:38:57;1.48;;;1.27;;
12212;SDS011;6169;44.158;22.788;2023-04-01T23:44:05;3.10;;;1.58;;
12212;SDS011;6169;44.158;22.788;2023-04-01T23:49:12;2.47;;;1.35;;
12212;SDS011;6169;44.158;22.788;2023-04-01T23:54:23;2.38;;;1.63;;
12212;SDS011;6169;44.158;22.788;2023-04-01T23:59:31;2.80;;;1.20;;
